Time;durP1;ratioP1;P1;durP2;ratioP2;P2;SDS_P1;SDS_P2;PMS_P1;PMS_P2;Temp;Humidity;BMP_temperature;BMP_pressure;BME280_temperature;BME280_humidity;BME280_pressure;Samples;Min_cycle;Max_cycle;Signal;HPM_P1;HPM_P2
2022/11/18 00:03:08;;;;;;;;;;;;;;;8.26;100.00;97431.00;10319110;23;20411;-76
2022/11/18 00:07:10;;;;;;;;;;;;;;;8.23;100.00;97436.25;10326796;23;19927;-76
2022/11/18 00:14:17;;;;;;;;;;;;;;;8.23;100.00;97446.59;10326169;23;19934;-76
2022/11/18 00:15:34;;;;;;;;;;;;;;;8.24;100.00;97452.59;10292506;23;19928;-76
2022/11/18 00:19:36;;;;;;;;;;;;;;;8.27;100.00;97449.97;10300906;23;19923;-76
2022/11/18 00:23:38;;;;;;;;;;;;;;;8.31;100.00;97459.31;10275258;23;19966;-76
2022/11/18 00:27:39;;;;;;;;;;;;;;;8.36;100.00;97453.16;10299063;23;20002;-76
2022/11/18 00:31:41;;;;;;;;;;;;;;;8.40;100.00;97457.34;10318540;23;19923;-76
2022/11/18 00:35:42;;;;;;;;;;;;;;;8.44;100.00;97453.81;10261654;22;20314;-77
2022/11/18 00:39:43;;;;;;;;;;;;;;;8.45;100.00;97465.88;10273716;23;19924;-77
2022/11/18 00:43:45;;;;;;;;;;;;;;;8.44;100.00;97461.59;10249282;23;19923;-77
2022/11/18 00:47:46;;;;;;;;;;;;;;;8.48;100.00;97464.94;10267677;23;20579;-77
2022/11/18 00:51:47;;;;;;;;;;;;;;;8.53;100.00;97475.13;10275815;23;19923;-77
2022/11/18 00:55:49;;;;;;;;;;;;;;;8.55;100.00;97481.97;10274008;23;20667;-76
2022/11/18 00:59:50;;;;;;;;;;;;;;;8.60;100.00;97487.84;10249347;23;20027;-77
2022/11/18 01:03:52;;;;;;;;;;;;;;;8.62;100.00;97493.03;10265736;23;19924;-78
2022/11/18 01:07:53;;;;;;;;;;;;;;;8.62;100.00;97496.44;10273120;23;19927;-77
2022/11/18 01:16:19;;;;;;;;;;;;;;;8.58;100.00;97504.31;10265885;23;19936;-78
2022/11/18 01:20:20;;;;;;;;;;;;;;;8.60;100.00;97505.13;10273167;23;19969;-78
2022/11/18 01:24:21;;;;;;;;;;;;;;;8.59;100.00;97516.34;10273621;23;19963;-78
2022/11/18 01:28:23;;;;;;;;;;;;;;;8.57;100.00;97521.56;10247873;23;19993;-77
2022/11/18 01:32:24;;;;;;;;;;;;;;;8.58;100.00;97522.41;10266062;23;19928;-77
2022/11/18 01:36:27;;;;;;;;;;;;;;;8.60;100.00;97530.97;10273252;23;20291;-79
2022/11/18 01:40:28;;;;;;;;;;;;;;;8.62;100.00;97549.94;10247850;23;19924;-76
2022/11/18 01:44:49;;;;;;;;;;;;;;;8.62;100.00;97576.66;10248533;23;20547;-77
2022/11/18 01:48:52;;;;;;;;;;;;;;;8.60;100.00;97582.72;10245388;23;20447;-80
2022/11/18 01:52:57;;;;;;;;;;;;;;;8.57;100.00;97585.38;10279907;23;19926;-79
2022/11/18 01:57:01;;;;;;;;;;;;;;;8.58;100.00;97593.09;10278100;23;19924;-77
2022/11/18 02:01:05;;;;;;;;;;;;;;;8.63;100.00;97591.28;10246053;23;20306;-79
2022/11/18 02:05:09;;;;;;;;;;;;;;;8.65;100.00;97586.91;10278245;23;19924;-79
2022/11/18 02:09:12;;;;;;;;;;;;;;;8.61;100.00;97593.03;10279393;23;19989;-79
2022/11/18 02:13:14;;;;;;;;;;;;;;;8.59;100.00;97597.41;10253941;23;19923;-80
2022/11/18 02:17:15;;;;;;;;;;;;;;;8.57;100.00;97599.19;10272323;23;19924;-78
2022/11/18 02:21:23;;;;;;;;;;;;;;;8.53;100.00;97609.66;10254427;23;19923;-80
2022/11/18 02:25:36;;;;;;;;;;;;;;;8.50;100.00;97605.41;10253402;23;20226;-79
2022/11/18 02:29:43;;;;;;;;;;;;;;;8.44;100.00;97601.25;10278926;23;19971;-79
2022/11/18 02:34:04;;;;;;;;;;;;;;;8.45;100.00;97612.44;10278478;23;19920;-79
2022/11/18 02:38:08;;;;;;;;;;;;;;;8.39;100.00;97608.25;10277232;23;19966;-79
2022/11/18 02:42:11;;;;;;;;;;;;;;;8.38;100.00;97609.13;10277638;23;20021;-78
2022/11/18 02:46:15;;;;;;;;;;;;;;;8.37;100.00;97615.19;10294473;23;20592;-79
2022/11/18 02:50:20;;;;;;;;;;;;;;;8.32;100.00;97619.59;10327778;23;19950;-79
2022/11/18 02:54:22;;;;;;;;;;;;;;;8.32;100.00;97619.59;10280572;23;19927;-79
2022/11/18 02:58:24;;;;;;;;;;;;;;;8.28;100.00;97615.41;10305622;23;19958;-80
2022/11/18 03:02:26;;;;;;;;;;;;;;;8.30;100.00;97623.97;10275057;23;19966;-79
2022/11/18 03:06:32;;;;;;;;;;;;;;;8.29;100.00;97626.59;10309436;23;19919;-78
2022/11/18 03:10:50;;;;;;;;;;;;;;;8.34;100.00;97632.53;10337090;23;19967;-79
2022/11/18 03:15:12;;;;;;;;;;;;;;;8.33;100.00;97638.53;10309717;23;20321;-78
2022/11/18 03:19:21;;;;;;;;;;;;;;;8.26;100.00;97637.84;10238540;23;19919;-79
2022/11/18 03:23:31;;;;;;;;;;;;;;;8.28;100.00;97630.06;10335789;23;19967;-78
2022/11/18 03:27:40;;;;;;;;;;;;;;;8.23;100.00;97648.25;10284969;23;20009;-78
2022/11/18 03:31:42;;;;;;;;;;;;;;;8.14;100.00;97645.88;10326266;23;19981;-78
2022/11/18 03:35:45;;;;;;;;;;;;;;;8.10;100.00;97662.34;10307584;23;19930;-78
2022/11/18 03:39:52;;;;;;;;;;;;;;;8.09;100.00;97663.25;10308809;23;19934;-77
2022/11/18 03:44:00;;;;;;;;;;;;;;;8.11;100.00;97666.63;10284600;23;19920;-78
2022/11/18 03:48:10;;;;;;;;;;;;;;;8.09;100.00;97669.25;10327502;23;19919;-78
2022/11/18 03:52:16;;;;;;;;;;;;;;;8.15;100.00;97670.84;10309209;23;19924;-78
2022/11/18 03:56:20;;;;;;;;;;;;;;;8.17;100.00;97682.00;10336044;23;19919;-78
2022/11/18 04:00:22;;;;;;;;;;;;;;;8.22;100.00;97685.31;10302647;23;20266;-78
2022/11/18 04:04:25;;;;;;;;;;;;;;;8.23;100.00;97687.03;10281582;23;20234;-77
2022/11/18 04:08:29;;;;;;;;;;;;;;;8.27;100.00;97682.66;10305717;23;19920;-78
2022/11/18 04:12:34;;;;;;;;;;;;;;;8.27;100.00;97686.09;10327871;23;19923;-78
2022/11/18 04:16:42;;;;;;;;;;;;;;;8.28;100.00;97697.28;10271819;23;19989;-78
2022/11/18 04:20:44;;;;;;;;;;;;;;;8.31;100.00;97697.22;10304059;23;19923;-78
2022/11/18 04:24:45;;;;;;;;;;;;;;;8.30;100.00;97717.03;10330305;23;19989;-78
2022/11/18 04:28:47;;;;;;;;;;;;;;;8.29;100.00;97709.31;10302645;23;19923;-78
2022/11/18 04:32:48;;;;;;;;;;;;;;;8.34;100.00;97717.84;10268613;23;19977;-78
2022/11/18 04:36:49;;;;;;;;;;;;;;;8.35;100.00;97714.38;10329515;23;20377;-77
2022/11/18 04:40:51;;;;;;;;;;;;;;;8.29;100.00;97720.53;10276655;23;19927;-78
2022/11/18 04:44:53;;;;;;;;;;;;;;;8.33;100.00;97729.06;10303083;23;19919;-78
2022/11/18 04:48:54;;;;;;;;;;;;;;;8.35;100.00;97729.91;10269515;23;19920;-77
2022/11/18 04:52:55;;;;;;;;;;;;;;;8.36;100.00;97740.19;10301497;23;19974;-78
2022/11/18 04:56:57;;;;;;;;;;;;;;;8.35;100.00;97738.50;10276616;23;19928;-78
2022/11/18 05:00:58;;;;;;;;;;;;;;;8.39;100.00;97744.44;10293134;23;20373;-78
2022/11/18 05:04:59;;;;;;;;;;;;;;;8.37;100.00;97735.88;10301519;23;19924;-79
2022/11/18 05:09:01;;;;;;;;;;;;;;;8.40;100.00;97744.41;10328455;23;19985;-78
2022/11/18 05:13:02;;;;;;;;;;;;;;;8.41;100.00;97746.13;10277097;23;19950;-78
2022/11/18 05:17:04;;;;;;;;;;;;;;;8.41;100.00;97751.28;10277051;23;19984;-80
2022/11/18 05:21:06;;;;;;;;;;;;;;;8.43;100.00;97759.00;10273376;23;20323;-78
2022/11/18 05:25:08;;;;;;;;;;;;;;;8.42;100.00;97758.16;10301177;23;19934;-78
2022/11/18 05:29:09;;;;;;;;;;;;;;;8.44;100.00;97763.31;10300723;23;19959;-78
2022/11/18 05:33:11;;;;;;;;;;;;;;;8.45;100.00;97768.47;10298343;22;19984;-78
2022/11/18 05:37:12;;;;;;;;;;;;;;;8.45;100.00;97775.38;10274267;23;20001;-78
2022/11/18 05:43:09;;;;;;;;;;;;;;;8.45;100.00;97775.38;10300427;23;20002;-77
2022/11/18 05:45:35;;;;;;;;;;;;;;;8.48;100.00;97777.88;10291182;23;20311;-77
2022/11/18 05:49:37;;;;;;;;;;;;;;;8.50;100.00;97783.88;10301067;23;19977;-78
2022/11/18 05:53:38;;;;;;;;;;;;;;;8.52;100.00;97789.00;10271631;23;20603;-77
2022/11/18 05:57:40;;;;;;;;;;;;;;;8.50;100.00;97794.22;10298820;23;20381;-78
2022/11/18 06:01:44;;;;;;;;;;;;;;;8.49;100.00;97792.53;10290889;23;20307;-77
2022/11/18 06:05:45;;;;;;;;;;;;;;;8.49;100.00;97797.69;10300151;23;19927;-78
2022/11/18 06:09:49;;;;;;;;;;;;;;;8.50;100.00;97798.53;10301333;23;19924;-78
2022/11/18 06:13:56;;;;;;;;;;;;;;;8.50;100.00;97809.75;10326984;23;19997;-78
2022/11/18 06:18:06;;;;;;;;;;;;;;;8.50;100.00;97808.88;10292997;23;19955;-78
2022/11/18 06:22:08;;;;;;;;;;;;;;;8.52;100.00;97818.31;10302140;23;19930;-80
2022/11/18 06:26:11;;;;;;;;;;;;;;;8.55;100.00;97826.00;10301301;23;20653;-78
2022/11/18 06:30:12;;;;;;;;;;;;;;;8.58;100.00;97845.78;10269495;23;19947;-79
2022/11/18 06:34:14;;;;;;;;;;;;;;;8.60;100.00;97841.41;10325042;23;20436;-78
2022/11/18 06:38:15;;;;;;;;;;;;;;;8.61;100.00;97837.94;10298411;23;19977;-80
2022/11/18 06:46:54;;;;;;;;;;;;;;;8.64;100.00;97864.63;10289250;23;19920;-78
2022/11/18 06:50:55;;;;;;;;;;;;;;;8.66;100.00;97882.72;10301326;23;19923;-79
2022/11/18 06:54:57;;;;;;;;;;;;;;;8.67;100.00;97884.41;10302076;23;20516;-79
2022/11/18 06:58:58;;;;;;;;;;;;;;;8.70;100.00;97892.09;10302789;23;19961;-79
2022/11/18 07:03:01;;;;;;;;;;;;;;;8.69;100.00;97892.97;10271736;23;19923;-78
2022/11/18 07:07:02;;;;;;;;;;;;;;;8.68;100.00;97897.31;10303327;23;19947;-80
2022/11/18 07:11:04;;;;;;;;;;;;;;;8.72;100.00;97900.69;10330137;23;19930;-80
2022/11/18 07:15:06;;;;;;;;;;;;;;;8.74;100.00;97912.69;10314784;23;20014;-80
2022/11/18 07:19:12;;;;;;;;;;;;;;;8.76;100.00;97920.41;10282431;23;19919;-82
2022/11/18 07:23:13;;;;;;;;;;;;;;;8.77;100.00;97925.56;10299864;23;19927;-80
2022/11/18 07:27:14;;;;;;;;;;;;;;;8.79;100.00;97933.28;10299919;23;19924;-77
2022/11/18 07:31:16;;;;;;;;;;;;;;;8.80;100.00;97929.84;10293392;23;19962;-79
2022/11/18 07:35:18;;;;;;;;;;;;;;;8.81;100.00;97933.28;10248753;23;19963;-79
2022/11/18 07:39:20;;;;;;;;;;;;;;;8.82;100.00;97941.03;10252214;23;19960;-79
2022/11/18 07:43:21;;;;;;;;;;;;;;;8.87;100.00;97959.03;10277266;23;19931;-79
2022/11/18 07:47:23;;;;;;;;;;;;;;;8.87;100.00;97959.88;10270265;23;19930;-79
2022/11/18 07:51:26;;;;;;;;;;;;;;;8.90;100.00;97969.31;10278440;23;19947;-80
2022/11/18 07:55:27;;;;;;;;;;;;;;;8.93;100.00;97975.28;10277184;23;19924;-80
2022/11/18 07:59:32;;;;;;;;;;;;;;;8.97;100.00;97982.09;10275119;23;19966;-78
2022/11/18 08:03:34;;;;;;;;;;;;;;;9.03;100.00;97992.34;10243957;23;20057;-81
2022/11/18 08:07:35;;;;;;;;;;;;;;;9.11;100.00;97987.00;10250669;23;19966;-78
2022/11/18 08:11:36;;;;;;;;;;;;;;;9.20;100.00;97989.41;10278200;23;19951;-78
2022/11/18 08:15:41;;;;;;;;;;;;;;;9.24;100.00;97995.34;10243911;23;19932;-78
2022/11/18 08:19:43;;;;;;;;;;;;;;;9.21;100.00;98003.19;10279436;23;19955;-80
2022/11/18 08:23:48;;;;;;;;;;;;;;;9.20;100.00;98011.84;10278598;23;19948;-78
2022/11/18 08:27:49;;;;;;;;;;;;;;;9.21;100.00;98013.56;10278142;23;20311;-77
2022/11/18 08:31:51;;;;;;;;;;;;;;;9.22;100.00;98023.03;10268821;23;19928;-78
2022/11/18 08:35:52;;;;;;;;;;;;;;;9.20;100.00;98014.44;10312026;23;19923;-79
2022/11/18 08:39:54;;;;;;;;;;;;;;;9.18;100.00;98019.66;10324708;23;20408;-78
2022/11/18 08:43:55;;;;;;;;;;;;;;;9.11;100.00;98022.38;10301573;23;19938;-79
2022/11/18 08:47:56;;;;;;;;;;;;;;;9.11;100.00;98025.81;10318212;23;19927;-78
2022/11/18 08:51:58;;;;;;;;;;;;;;;9.14;100.00;98022.31;10276289;23;19924;-80
2022/11/18 08:55:59;;;;;;;;;;;;;;;9.15;100.00;98032.66;10325073;23;19969;-78
2022/11/18 09:00:03;;;;;;;;;;;;;;;9.24;100.00;98031.63;10275728;23;20259;-79
2022/11/18 09:04:04;;;;;;;;;;;;;;;9.33;100.00;98028.81;10299022;23;19924;-78
2022/11/18 09:08:05;;;;;;;;;;;;;;;9.47;100.00;98038.88;10303626;23;20008;-80
2022/11/18 09:12:08;;;;;;;;;;;;;;;9.57;100.00;98045.59;10303360;23;19927;-78
2022/11/18 09:16:09;;;;;;;;;;;;;;;9.82;100.00;98049.31;10271140;23;20006;-79
2022/11/18 09:20:10;;;;;;;;;;;;;;;10.17;100.00;98052.81;10331295;23;20858;-78
2022/11/18 09:24:12;;;;;;;;;;;;;;;10.42;100.00;98046.19;10332028;23;20287;-80
2022/11/18 09:28:13;;;;;;;;;;;;;;;10.54;97.84;98055.38;10308376;23;19985;-79
2022/11/18 09:32:15;;;;;;;;;;;;;;;10.46;95.85;98054.75;10304549;23;19924;-79
2022/11/18 09:36:18;;;;;;;;;;;;;;;10.44;94.67;98059.97;10309612;23;19923;-80
2022/11/18 09:40:19;;;;;;;;;;;;;;;10.77;94.36;98057.38;10310342;23;20586;-80
2022/11/18 09:44:29;;;;;;;;;;;;;;;10.84;91.67;98061.53;10282080;23;19997;-79
2022/11/18 09:53:01;;;;;;;;;;;;;;;10.56;90.23;98088.19;10332855;23;19931;-80
2022/11/18 09:57:09;;;;;;;;;;;;;;;10.53;90.90;98092.59;10285199;23;19923;-79
2022/11/18 10:01:12;;;;;;;;;;;;;;;10.55;91.15;98103.81;10277109;23;19958;-80
2022/11/18 10:05:19;;;;;;;;;;;;;;;10.59;91.17;98108.91;10309171;23;19923;-80
2022/11/18 10:09:25;;;;;;;;;;;;;;;10.57;90.45;98108.06;10283737;23;19924;-80
2022/11/18 10:13:26;;;;;;;;;;;;;;;10.59;90.14;98108.00;10336918;23;19923;-81
2022/11/18 10:17:37;;;;;;;;;;;;;;;10.79;90.64;98116.19;10301437;23;20216;-79
2022/11/18 10:21:42;;;;;;;;;;;;;;;10.80;88.89;98117.03;10283993;23;19919;-80
2022/11/18 10:25:43;;;;;;;;;;;;;;;10.73;87.94;98121.50;10283176;23;20245;-81
2022/11/18 10:29:47;;;;;;;;;;;;;;;10.71;87.64;98123.28;10306351;23;19928;-80
2022/11/18 10:33:56;;;;;;;;;;;;;;;10.68;88.16;98133.75;10305148;23;19934;-81
2022/11/18 10:38:00;;;;;;;;;;;;;;;10.65;87.46;98136.44;10338182;23;20224;-79
2022/11/18 10:42:17;;;;;;;;;;;;;;;10.68;87.26;98133.75;10309881;23;19923;-82
2022/11/18 10:46:29;;;;;;;;;;;;;;;10.67;87.02;98136.41;10281687;23;19923;-81
2022/11/18 10:50:35;;;;;;;;;;;;;;;10.74;86.75;98132.75;10325292;23;19934;-81
2022/11/18 10:54:36;;;;;;;;;;;;;;;10.86;87.54;98129.84;10335168;23;19999;-82
2022/11/18 10:58:42;;;;;;;;;;;;;;;10.90;87.40;98131.47;10279108;23;19923;-82
2022/11/18 11:02:44;;;;;;;;;;;;;;;10.92;88.16;98134.00;10300768;23;19924;-84
2022/11/18 11:06:45;;;;;;;;;;;;;;;11.01;86.94;98131.19;10333438;23;19935;-81
2022/11/18 11:10:57;;;;;;;;;;;;;;;11.02;85.31;98131.16;10312234;23;19935;-81
2022/11/18 11:15:00;;;;;;;;;;;;;;;11.17;84.39;98130.75;10310079;23;19923;-81
2022/11/18 11:19:04;;;;;;;;;;;;;;;11.39;83.11;98138.81;10279385;23;19946;-81
2022/11/18 11:23:10;;;;;;;;;;;;;;;11.47;81.79;98141.16;10312803;23;19946;-81
2022/11/18 11:27:11;;;;;;;;;;;;;;;11.56;82.67;98148.72;10286750;23;20266;-81
2022/11/18 11:31:35;;;;;;;;;;;;;;;11.62;81.06;98145.09;10281330;23;19967;-81
2022/11/18 11:35:47;;;;;;;;;;;;;;;11.79;80.22;98141.13;10311482;23;19931;-81
2022/11/18 11:39:48;;;;;;;;;;;;;;;11.85;78.19;98144.44;10284505;23;20394;-80
2022/11/18 11:43:56;;;;;;;;;;;;;;;11.96;78.61;98148.44;10308125;23;19992;-81
2022/11/18 11:48:13;;;;;;;;;;;;;;;11.92;77.39;98152.03;10290689;23;19989;-80
2022/11/18 11:52:17;;;;;;;;;;;;;;;11.81;77.63;98146.28;10306005;23;19962;-81
2022/11/18 11:56:35;;;;;;;;;;;;;;;11.58;77.45;98143.47;10281896;23;19972;-81
2022/11/18 12:00:43;;;;;;;;;;;;;;;11.52;78.44;98154.06;10329680;23;19923;-82
2022/11/18 12:04:52;;;;;;;;;;;;;;;11.48;79.58;98142.88;10284527;23;19923;-82
2022/11/18 12:09:14;;;;;;;;;;;;;;;11.44;80.58;98149.91;10308578;23;19919;-80
2022/11/18 12:13:28;;;;;;;;;;;;;;;11.34;81.11;98150.22;10310556;23;19968;-81
2022/11/18 12:17:32;;;;;;;;;;;;;;;11.23;80.59;98152.25;10308221;23;19931;-82
2022/11/18 12:21:46;;;;;;;;;;;;;;;11.17;80.52;98154.13;10349171;23;20525;-82
2022/11/18 12:25:47;;;;;;;;;;;;;;;11.14;79.61;98163.75;10300069;23;19946;-81
2022/11/18 12:29:49;;;;;;;;;;;;;;;11.16;80.05;98162.81;10324772;23;20022;-82
2022/11/18 12:33:55;;;;;;;;;;;;;;;11.20;79.79;98166.19;10342361;23;19931;-82
2022/11/18 12:37:58;;;;;;;;;;;;;;;11.20;79.59;98179.16;10351215;23;19931;-82
2022/11/18 12:46:34;;;;;;;;;;;;;;;10.95;81.50;98171.16;10270000;23;19966;-82
2022/11/18 12:50:49;;;;;;;;;;;;;;;11.03;82.38;98170.97;10323874;23;19935;-82
2022/11/18 12:54:51;;;;;;;;;;;;;;;11.02;82.52;98169.25;10292508;23;19923;-81
2022/11/18 12:58:54;;;;;;;;;;;;;;;11.01;81.47;98180.53;10310173;23;19931;-79
2022/11/18 13:02:57;;;;;;;;;;;;;;;10.96;81.39;98182.41;10280296;23;19931;-80
2022/11/18 13:07:00;;;;;;;;;;;;;;;10.96;83.25;98179.81;10338514;23;20309;-81
2022/11/18 13:20:00;;;;;;;;;;;;;;;10.88;82.62;98180.00;10312046;23;19923;-80
2022/11/18 13:24:03;;;;;;;;;;;;;;;10.76;82.51;98180.28;10288685;23;19920;-79
2022/11/18 13:28:14;;;;;;;;;;;;;;;10.65;81.59;98187.50;10312664;23;19927;-80
2022/11/18 13:32:26;;;;;;;;;;;;;;;10.56;83.30;98189.41;10298945;23;19923;-79
2022/11/18 13:36:27;;;;;;;;;;;;;;;10.46;85.39;98187.94;10279063;23;20204;-79
2022/11/18 13:40:30;;;;;;;;;;;;;;;10.37;86.43;98190.72;10277692;23;20742;-80
2022/11/18 13:44:34;;;;;;;;;;;;;;;10.18;86.80;98187.66;10273544;23;19981;-78
2022/11/18 13:48:38;;;;;;;;;;;;;;;10.07;87.83;98184.47;10236877;23;20391;-78
2022/11/18 13:52:41;;;;;;;;;;;;;;;10.05;89.62;98193.16;10273273;23;19981;-80
2022/11/18 13:56:43;;;;;;;;;;;;;;;10.06;91.16;98189.69;10273421;23;19981;-77
2022/11/18 14:00:59;;;;;;;;;;;;;;;10.09;91.94;98187.03;10265250;23;19947;-78
2022/11/18 14:05:01;;;;;;;;;;;;;;;10.13;92.17;98189.50;10247106;23;19935;-78
2022/11/18 14:09:03;;;;;;;;;;;;;;;10.12;92.53;98189.56;10275446;23;19985;-77
2022/11/18 14:13:14;;;;;;;;;;;;;;;10.15;92.39;98192.06;10275230;23;19978;-78
2022/11/18 14:17:17;;;;;;;;;;;;;;;10.15;93.06;98194.66;10270450;23;20448;-78
2022/11/18 14:21:27;;;;;;;;;;;;;;;10.13;93.31;98199.88;10268926;23;19955;-78
2022/11/18 14:25:33;;;;;;;;;;;;;;;10.09;93.59;98189.63;10275731;23;19947;-79
2022/11/18 14:29:34;;;;;;;;;;;;;;;10.11;93.93;98204.25;10272975;23;19936;-81
2022/11/18 14:33:36;;;;;;;;;;;;;;;10.14;94.45;98199.00;10246071;23;19942;-78
2022/11/18 14:37:38;;;;;;;;;;;;;;;10.14;94.36;98201.59;10297978;23;19934;-78
2022/11/18 14:41:48;;;;;;;;;;;;;;;10.12;94.41;98207.72;10325424;23;20329;-79
2022/11/18 14:45:52;;;;;;;;;;;;;;;10.03;94.73;98208.75;10291531;23;20239;-78
2022/11/18 14:49:53;;;;;;;;;;;;;;;9.93;95.00;98213.28;10299760;23;20014;-80
2022/11/18 14:53:54;;;;;;;;;;;;;;;9.91;95.05;98224.56;10326530;23;19950;-78
2022/11/18 14:57:56;;;;;;;;;;;;;;;9.78;94.37;98213.59;10299531;23;20641;-79
2022/11/18 15:01:58;;;;;;;;;;;;;;;9.76;94.41;98212.78;10266947;23;19919;-77
2022/11/18 15:06:00;;;;;;;;;;;;;;;9.76;94.91;98212.78;10273954;23;19985;-78
2022/11/18 15:10:02;;;;;;;;;;;;;;;9.72;94.99;98218.06;10324315;23;19959;-79
2022/11/18 15:14:04;;;;;;;;;;;;;;;9.74;94.74;98213.69;10326466;23;19958;-80
2022/11/18 15:18:05;;;;;;;;;;;;;;;9.71;95.37;98218.94;10291510;23;19930;-80
2022/11/18 15:22:07;;;;;;;;;;;;;;;9.64;94.80;98231.16;10302003;23;19923;-78
2022/11/18 15:26:29;;;;;;;;;;;;;;;9.61;94.55;98233.81;10278050;23;20047;-80
2022/11/18 15:30:30;;;;;;;;;;;;;;;9.53;94.64;98239.16;10295567;23;19966;-79
2022/11/18 15:34:31;;;;;;;;;;;;;;;9.49;95.14;98241.78;10301256;23;19924;-80
2022/11/18 15:38:35;;;;;;;;;;;;;;;9.42;95.21;98241.06;10302169;23;19971;-78
2022/11/18 15:42:36;;;;;;;;;;;;;;;9.38;95.33;98239.44;10303591;23;19958;-77
2022/11/18 15:46:50;;;;;;;;;;;;;;;9.36;95.80;98242.03;10295901;23;19978;-79
2022/11/18 15:50:52;;;;;;;;;;;;;;;9.33;96.05;98243.81;10276776;23;19927;-81
2022/11/18 15:54:54;;;;;;;;;;;;;;;9.31;96.61;98245.56;10328090;23;19965;-77
2022/11/18 15:59:06;;;;;;;;;;;;;;;9.24;96.73;98256.94;10328303;23;20365;-79
2022/11/18 16:03:07;;;;;;;;;;;;;;;9.20;96.67;98253.56;10292960;23;20243;-77
2022/11/18 16:07:09;;;;;;;;;;;;;;;9.21;97.05;98251.81;10272594;23;19931;-77
2022/11/18 16:15:46;;;;;;;;;;;;;;;9.14;97.30;98256.22;10290011;23;19924;-78
2022/11/18 16:19:48;;;;;;;;;;;;;;;9.11;97.88;98260.59;10274450;23;19927;-77
2022/11/18 16:23:52;;;;;;;;;;;;;;;9.11;97.58;98271.81;10272682;23;20295;-80
2022/11/18 16:27:54;;;;;;;;;;;;;;;9.09;98.37;98258.91;10325908;23;19919;-80
2022/11/18 16:31:55;;;;;;;;;;;;;;;9.07;98.10;98265.00;10316757;23;19948;-77
2022/11/18 16:35:57;;;;;;;;;;;;;;;9.07;97.96;98265.84;10273666;23;19985;-78
2022/11/18 16:39:58;;;;;;;;;;;;;;;9.02;97.62;98269.41;10274577;23;19928;-79
2022/11/18 16:44:02;;;;;;;;;;;;;;;9.00;97.96;98274.59;10274313;23;19978;-79
2022/11/18 16:48:03;;;;;;;;;;;;;;;8.95;97.76;98273.81;10269154;23;20286;-78
2022/11/18 16:52:05;;;;;;;;;;;;;;;8.97;97.81;98273.78;10275526;23;19920;-78
2022/11/18 16:56:07;;;;;;;;;;;;;;;8.97;98.43;98284.97;10274426;23;19924;-78
2022/11/18 17:00:08;;;;;;;;;;;;;;;8.97;97.96;98291.91;10250003;23;19955;-78
2022/11/18 17:04:10;;;;;;;;;;;;;;;8.90;97.87;98295.47;10276112;23;20010;-81
2022/11/18 17:08:11;;;;;;;;;;;;;;;8.92;98.16;98291.13;10274507;23;19977;-78
2022/11/18 17:12:13;;;;;;;;;;;;;;;8.89;97.68;98289.44;10275944;23;20342;-78
2022/11/18 17:16:15;;;;;;;;;;;;;;;8.87;97.68;98292.94;10243324;23;19998;-78
2022/11/18 17:20:17;;;;;;;;;;;;;;;8.82;96.81;98295.59;10276992;23;19954;-79
2022/11/18 17:24:19;;;;;;;;;;;;;;;8.77;97.41;98294.78;10277396;23;19923;-77
2022/11/18 17:28:21;;;;;;;;;;;;;;;8.74;97.35;98297.44;10277811;23;19924;-78
2022/11/18 17:32:22;;;;;;;;;;;;;;;8.73;97.69;98298.31;10272773;23;19924;-81
2022/11/18 17:36:25;;;;;;;;;;;;;;;8.70;98.64;98298.34;10255924;23;19920;-80
2022/11/18 17:40:26;;;;;;;;;;;;;;;8.66;97.88;98301.88;10254461;23;20305;-80
2022/11/18 17:44:28;;;;;;;;;;;;;;;8.63;97.80;98307.94;10283790;23;19951;-80
2022/11/18 17:48:31;;;;;;;;;;;;;;;8.65;98.81;98310.50;10273948;23;19923;-80
2022/11/18 17:52:32;;;;;;;;;;;;;;;8.66;98.99;98312.22;10256994;23;20375;-80
2022/11/18 17:56:34;;;;;;;;;;;;;;;8.63;98.87;98310.53;10281584;23;19967;-81
2022/11/18 18:00:35;;;;;;;;;;;;;;;8.61;99.16;98312.25;10248667;23;20007;-80
2022/11/18 18:04:38;;;;;;;;;;;;;;;8.58;98.55;98321.81;10282757;23;19920;-81
2022/11/18 18:08:40;;;;;;;;;;;;;;;8.58;98.87;98324.41;10284605;23;19928;-81
2022/11/18 18:17:05;;;;;;;;;;;;;;;8.52;98.71;98329.66;10274859;23;19920;-81
2022/11/18 18:21:06;;;;;;;;;;;;;;;8.50;98.48;98332.28;10283370;23;19962;-81
2022/11/18 18:25:13;;;;;;;;;;;;;;;8.49;98.32;98338.31;10288434;23;19924;-81
2022/11/18 18:29:15;;;;;;;;;;;;;;;8.43;98.95;98335.78;10258105;23;19927;-81
2022/11/18 18:33:16;;;;;;;;;;;;;;;8.38;98.72;98341.03;10249896;23;20449;-81
2022/11/18 18:37:17;;;;;;;;;;;;;;;8.41;98.73;98346.16;10305994;23;19931;-81
2022/11/18 18:41:20;;;;;;;;;;;;;;;8.41;99.32;98343.59;10281092;23;19991;-81
2022/11/18 18:49:42;;;;;;;;;;;;;;;8.40;99.10;98338.44;10306498;23;19924;-81
2022/11/18 18:53:43;;;;;;;;;;;;;;;8.41;98.58;98342.72;10331123;23;19977;-81
2022/11/18 18:57:47;;;;;;;;;;;;;;;8.43;99.15;98343.56;10306673;23;19923;-80
2022/11/18 19:01:49;;;;;;;;;;;;;;;8.35;99.13;98335.91;10273807;23;19927;-80
2022/11/18 19:05:50;;;;;;;;;;;;;;;8.36;99.66;98347.09;10305693;23;19973;-80
2022/11/18 19:10:12;;;;;;;;;;;;;;;8.30;99.89;98348.00;10305152;23;20303;-80
2022/11/18 19:14:16;;;;;;;;;;;;;;;8.29;100.00;98354.06;10330950;23;19924;-80
2022/11/18 19:18:23;;;;;;;;;;;;;;;8.32;100.00;98355.75;10321781;23;20325;-80
2022/11/18 19:22:27;;;;;;;;;;;;;;;8.32;100.00;98364.38;10278379;23;19924;-80
2022/11/18 19:26:29;;;;;;;;;;;;;;;8.35;100.00;98364.34;10332723;23;19942;-80
2022/11/18 19:30:31;;;;;;;;;;;;;;;8.37;100.00;98364.34;10290463;23;19965;-81
2022/11/18 19:34:35;;;;;;;;;;;;;;;8.36;100.00;98357.44;10303868;23;19923;-79
2022/11/18 19:38:36;;;;;;;;;;;;;;;8.35;100.00;98361.78;10303562;23;20270;-78
2022/11/18 19:42:39;;;;;;;;;;;;;;;8.38;100.00;98363.47;10304997;23;20015;-79
2022/11/18 19:46:40;;;;;;;;;;;;;;;8.34;100.00;98359.22;10270303;23;19962;-78
2022/11/18 19:50:42;;;;;;;;;;;;;;;8.31;100.00;98360.06;10329305;23;19924;-79
2022/11/18 19:54:43;;;;;;;;;;;;;;;8.26;100.00;98371.31;10277688;23;20011;-78
2022/11/18 19:58:46;;;;;;;;;;;;;;;8.19;100.00;98365.38;10279399;23;19923;-78
2022/11/18 20:02:47;;;;;;;;;;;;;;;8.13;100.00;98373.22;10294751;23;19919;-78
2022/11/18 20:06:48;;;;;;;;;;;;;;;8.16;100.00;98374.03;10278941;23;19927;-78
2022/11/18 20:10:51;;;;;;;;;;;;;;;8.18;100.00;98386.94;10278893;23;19924;-78
2022/11/18 20:14:52;;;;;;;;;;;;;;;8.17;100.00;98387.81;10276174;23;19931;-78
2022/11/18 20:18:54;;;;;;;;;;;;;;;8.18;100.00;98387.78;10279630;23;19989;-78
2022/11/18 20:22:56;;;;;;;;;;;;;;;8.22;100.00;98395.50;10304060;23;19930;-78
2022/11/18 20:26:57;;;;;;;;;;;;;;;8.19;100.00;98392.09;10328410;23;19920;-78
2022/11/18 20:30:59;;;;;;;;;;;;;;;8.17;100.00;98398.16;10264133;23;19943;-78
2022/11/18 20:35:00;;;;;;;;;;;;;;;8.15;100.00;98405.06;10297682;23;20010;-78
2022/11/18 20:39:03;;;;;;;;;;;;;;;8.11;100.00;98400.81;10298077;23;20303;-78
2022/11/18 20:43:11;;;;;;;;;;;;;;;8.11;100.00;98408.56;10273453;23;19953;-79
2022/11/18 20:47:12;;;;;;;;;;;;;;;8.14;100.00;98401.63;10289825;23;19931;-78
2022/11/18 20:51:15;;;;;;;;;;;;;;;8.15;100.00;98393.00;10297239;23;19927;-78
2022/11/18 20:55:16;;;;;;;;;;;;;;;8.14;100.00;98388.72;10300797;23;20259;-78
2022/11/18 20:59:18;;;;;;;;;;;;;;;8.15;100.00;98385.25;10276756;23;19959;-78
2022/11/18 21:03:21;;;;;;;;;;;;;;;8.12;100.00;98394.78;10270242;23;19947;-78
2022/11/18 21:07:22;;;;;;;;;;;;;;;8.07;100.00;98397.38;10301082;23;20377;-78
2022/11/18 21:11:24;;;;;;;;;;;;;;;8.03;100.00;98402.59;10327691;23;19942;-78
2022/11/18 21:15:26;;;;;;;;;;;;;;;8.02;100.00;98399.16;10293395;23;19923;-78
2022/11/18 21:19:27;;;;;;;;;;;;;;;8.04;100.00;98404.31;10330658;23;20498;-78
2022/11/18 21:23:29;;;;;;;;;;;;;;;8.08;100.00;98400.84;10277921;23;20038;-78
2022/11/18 21:27:30;;;;;;;;;;;;;;;8.09;100.00;98411.19;10301774;23;19958;-78
2022/11/18 21:31:32;;;;;;;;;;;;;;;8.11;100.00;98419.78;10294740;23;19994;-78
2022/11/18 21:35:33;;;;;;;;;;;;;;;8.13;100.00;98412.00;10328546;23;19978;-78